Oklahoma City, OK (73195)

3:58 PM CST on February 09, 2016 (GMT -0600)
Casady School | | Change Station
CLOSE
Current Station
Personal Weather Station
Location: Oklahoma City, OK
Elevation: 1224 ft
Nearby Weather Stations

Elev 1224 ft 35.57 °N, 97.55 °W | Updated 8 seconds ago

Partly Cloudy
Partly Cloudy
48.8 °F
Feels Like 45 °F
N
8.4
Wind Variable Wind from WNW
Gusts 25.0 mph

Today
High -- | Low -- °F
--% Chance of Precip.
Yesterday
High -- | Low -- °F
Precip. -- in
Pressure 30.30 in
Visibility 10.0 miles
Clouds Clear
Windchill 45 °F
Dew Point 23 °F
Humidity 33%
Rainfall 0.00 in
Snow Depth Not available.
7:23 AM 6:05 PM
New Moon, 2% visible
METAR KPWA 092153Z 35016G24KT 10SM CLR 10/M06 A3029 RMK AO2 PK WND 01026/2119 SLP260 T01001061
Pressure 30.30 in
Visibility 10.0 miles
Clouds Clear
Windchill 45 °F
Dew Point 23 °F
Humidity 33%
Rainfall 0.00 in
Snow Depth Not available.
7:23 AM 6:05 PM
New Moon, 2% visible
METAR KPWA 092153Z 35016G24KT 10SM CLR 10/M06 A3029 RMK AO2 PK WND 01026/2119 SLP260 T01001061

10-Day Weather Forecast

Almanac

Astronomy

Feb. 09, 2016 Rise Set
Actual Time
Civil Twilight
Nautical Twilight
Astronomical Twilight
Moon
Length of Visible Light
Length of Day
Tomorrow will be .
, % of the Moon is Illuminated

Today's Extremes

State Highs State Lows

Community

WunderPhotos

Upload Photos

1,891,710 photos uploaded!

WunderBlog® & News

Nearby

Air Quality

  Air Quality AQ Index Pollutant
Not available.

Snow Depth

Station Depth Elevation

Earthquake Activity

City Distance Mag. Time & Date
Minimum magnitude displayed is 2.5.

Coastal Water Temperatures

Place Temperature

Stations

Nearby Weather Stations

Station Location Temp. Windchill Dew Point Humidity Wind Precip. Elev Updated Type
                   

Watches & Warnings

There are currently no watches in effect.